METAR Data
IDs: Format: Raw Decoded Include TAF

Data at: 2230 UTC 01 Dec 2021

METAR for:KAXV (Wapakoneta/Armstrong, OH, US)
Text:KAXV 012215Z AUTO 00000KT 10SM SCT026 BKN031 OVC050 06/05 A2988 RMK AO2
Temperature: 6.0°C ( 43°F)
Dewpoint: 5.0°C ( 41°F) [RH = 93%]
Pressure (altimeter):29.88 inches Hg (1011.9 mb)
Winds:calm
Visibility:10 or more sm (16+ km)
Ceiling:3100 feet AGL
Clouds: scattered clouds at 2600 feet AGL, broken clouds at 3100 feet AGL, overcast cloud deck at 5000 feet AGL
QC Flag:automated observation with no human augmentation